Time;durP1;ratioP1;P1;durP2;ratioP2;P2;SDS_P1;SDS_P2;PMS_P1;PMS_P2;Temp;Humidity;BMP_temperature;BMP_pressure;BME280_temperature;BME280_humidity;BME280_pressure;Samples;Min_cycle;Max_cycle;Signal;HPM_P1;HPM_P2
2021/01/18 00:00:11;;;;;;;44.10;7.68;;;1.00;98.70;;;;;;5030634;28;20488;-82
2021/01/18 00:02:37;;;;;;;43.35;7.10;;;1.00;98.70;;;;;;5049279;28;20037;-82
2021/01/18 00:05:04;;;;;;;50.45;7.78;;;0.90;98.60;;;;;;5026870;28;20496;-83
2021/01/18 00:07:29;;;;;;;46.05;7.65;;;1.00;98.60;;;;;;5035430;28;20053;-83
2021/01/18 00:09:56;;;;;;;41.20;7.30;;;0.90;98.50;;;;;;5042927;28;20140;-82
2021/01/18 00:12:21;;;;;;;52.80;7.22;;;0.90;98.50;;;;;;5033935;28;20080;-82
2021/01/18 00:14:47;;;;;;;26.98;6.43;;;0.90;98.60;;;;;;5041202;28;20051;-82
2021/01/18 00:17:13;;;;;;;44.38;6.20;;;0.90;98.60;;;;;;5027503;28;20083;-82
2021/01/18 00:19:39;;;;;;;39.40;5.82;;;1.00;98.60;;;;;;5059347;28;20076;-82
2021/01/18 00:22:04;;;;;;;39.20;5.65;;;0.90;98.60;;;;;;5054056;28;20048;-82
2021/01/18 00:24:30;;;;;;;40.78;6.30;;;1.00;98.60;;;;;;5024015;28;20513;-82
2021/01/18 00:26:56;;;;;;;33.95;6.03;;;0.90;98.70;;;;;;5047967;28;20036;-82
2021/01/18 00:29:21;;;;;;;44.15;5.57;;;0.90;98.60;;;;;;5024377;28;20632;-82
2021/01/18 00:31:47;;;;;;;33.75;5.53;;;0.90;98.60;;;;;;5037235;28;20053;-82
2021/01/18 00:34:13;;;;;;;37.47;5.72;;;0.90;98.60;;;;;;5058507;28;20046;-82
2021/01/18 00:36:47;;;;;;;33.70;5.95;;;0.90;98.60;;;;;;5032086;28;20044;-82
2021/01/18 00:39:12;;;;;;;31.08;5.07;;;0.90;98.50;;;;;;5050452;28;20037;-82
2021/01/18 00:41:39;;;;;;;32.28;5.78;;;0.80;98.50;;;;;;5027255;28;20059;-82
2021/01/18 00:44:06;;;;;;;44.90;6.20;;;0.80;98.60;;;;;;5061836;28;20153;-82
2021/01/18 00:46:31;;;;;;;30.90;5.53;;;0.80;98.60;;;;;;5043551;28;20040;-82
2021/01/18 00:48:58;;;;;;;32.40;5.80;;;0.80;98.60;;;;;;5048599;28;20037;-82
2021/01/18 00:51:23;;;;;;;38.13;6.47;;;0.80;98.60;;;;;;5039158;28;20060;-82
2021/01/18 00:53:49;;;;;;;31.85;5.75;;;0.80;98.60;;;;;;5044735;28;20040;-82
2021/01/18 00:56:15;;;;;;;28.27;6.35;;;0.80;98.60;;;;;;5042971;28;20037;-82
2021/01/18 00:58:42;;;;;;;37.50;7.22;;;0.80;98.60;;;;;;5030918;28;20063;-82
2021/01/18 01:01:08;;;;;;;41.78;6.72;;;0.90;98.60;;;;;;5040136;28;20044;-82
2021/01/18 01:03:34;;;;;;;34.72;6.88;;;0.80;98.60;;;;;;5065203;28;20112;-82
2021/01/18 01:06:00;;;;;;;38.38;8.02;;;0.80;98.60;;;;;;5040373;28;20073;-82
2021/01/18 01:08:26;;;;;;;27.55;7.90;;;0.80;98.60;;;;;;5043335;28;20049;-82
2021/01/18 01:10:52;;;;;;;32.15;7.82;;;0.80;98.50;;;;;;5039080;28;20049;-82
2021/01/18 01:13:18;;;;;;;32.65;8.90;;;0.70;98.50;;;;;;5050733;28;20048;-82
2021/01/18 01:15:44;;;;;;;46.83;10.10;;;0.70;98.60;;;;;;5020783;28;20128;-82
2021/01/18 01:18:09;;;;;;;33.97;9.18;;;0.70;98.50;;;;;;5032928;28;20045;-82
2021/01/18 01:20:35;;;;;;;40.13;9.35;;;0.70;98.50;;;;;;5047080;28;20049;-82
2021/01/18 01:23:02;;;;;;;38.40;9.63;;;0.70;98.50;;;;;;5056321;28;20079;-82
2021/01/18 01:25:28;;;;;;;35.30;9.18;;;0.70;98.60;;;;;;5025497;28;20034;-82
2021/01/18 01:27:54;;;;;;;48.22;9.25;;;0.70;98.90;;;;;;5029389;28;20065;-82
2021/01/18 01:30:24;;;;;;;35.75;8.63;;;0.70;98.60;;;;;;5028878;28;20063;-82
2021/01/18 01:32:54;;;;;;;37.70;7.55;;;0.70;98.60;;;;;;5026192;28;20115;-82
2021/01/18 01:35:22;;;;;;;30.05;7.05;;;0.70;98.60;;;;;;5055787;28;20049;-82
2021/01/18 01:37:49;;;;;;;37.28;7.15;;;0.70;98.70;;;;;;5039836;28;20128;-82
2021/01/18 01:40:17;;;;;;;32.33;7.57;;;0.70;98.70;;;;;;5009753;28;20104;-82
2021/01/18 01:42:43;;;;;;;35.03;7.93;;;0.70;98.70;;;;;;5016639;28;20049;-82
2021/01/18 01:45:11;;;;;;;32.42;7.55;;;0.70;98.70;;;;;;5047060;28;20042;-82
2021/01/18 01:47:42;;;;;;;42.53;6.63;;;0.70;98.80;;;;;;5031626;28;20051;-82
2021/01/18 01:50:16;;;;;;;42.40;7.43;;;0.80;98.80;;;;;;5030626;28;20025;-82
2021/01/18 01:52:57;;;;;;;28.55;6.55;;;0.80;98.80;;;;;;5043951;28;20041;-82
2021/01/18 01:55:31;;;;;;;45.13;6.75;;;0.80;98.90;;;;;;5049737;28;20047;-82
2021/01/18 01:57:59;;;;;;;41.55;7.75;;;0.80;98.90;;;;;;5034191;28;20045;-82
2021/01/18 02:00:36;;;;;;;44.03;8.57;;;0.90;98.90;;;;;;5032509;28;20049;-82
2021/01/18 02:03:08;;;;;;;36.70;7.93;;;1.00;99.10;;;;;;5052215;28;20061;-82
2021/01/18 02:05:34;;;;;;;34.58;7.55;;;1.10;99.10;;;;;;5043474;28;20040;-82
2021/01/18 02:08:01;;;;;;;29.90;7.50;;;1.10;99.10;;;;;;5052462;28;20075;-82
2021/01/18 02:10:27;;;;;;;44.00;8.27;;;1.20;99.10;;;;;;5028745;28;20034;-82
2021/01/18 02:12:57;;;;;;;35.67;6.93;;;1.20;99.10;;;;;;5042052;28;20073;-82
2021/01/18 02:15:50;;;;;;;31.92;6.25;;;1.20;99.10;;;;;;5061286;28;20542;-82
2021/01/18 02:18:34;;;;;;;33.05;7.28;;;1.20;99.10;;;;;;5037884;28;20417;-83
2021/01/18 02:21:09;;;;;;;39.63;6.00;;;1.10;99.10;;;;;;5040598;28;20169;-82
2021/01/18 02:23:39;;;;;;;35.65;6.40;;;1.10;99.10;;;;;;5033333;28;20076;-83
2021/01/18 02:26:11;;;;;;;35.33;7.22;;;1.10;99.10;;;;;;5027831;28;20041;-82
2021/01/18 02:29:00;;;;;;;40.55;6.50;;;1.10;99.10;;;;;;5038642;28;20103;-82
2021/01/18 02:31:29;;;;;;;37.20;6.82;;;1.10;99.10;;;;;;5044079;28;20049;-83
2021/01/18 02:34:21;;;;;;;31.85;5.88;;;1.10;99.10;;;;;;5041210;28;20106;-82
2021/01/18 02:37:26;;;;;;;29.98;6.15;;;1.10;99.10;;;;;;5042460;28;20040;-82
2021/01/18 02:40:07;;;;;;;30.75;5.32;;;1.10;99.10;;;;;;5043205;28;20152;-82
2021/01/18 02:42:53;;;;;;;38.40;7.88;;;1.10;99.10;;;;;;5038399;28;20432;-82
2021/01/18 02:45:21;;;;;;;36.08;6.57;;;1.20;99.20;;;;;;5036784;28;20424;-82
2021/01/18 02:47:48;;;;;;;32.35;6.70;;;1.20;99.10;;;;;;5027217;28;20053;-82
2021/01/18 02:50:15;;;;;;;34.55;6.63;;;1.10;99.10;;;;;;5018686;28;20195;-83
2021/01/18 02:52:44;;;;;;;32.25;6.32;;;1.10;99.00;;;;;;5048004;28;20341;-82
2021/01/18 02:55:11;;;;;;;43.35;7.25;;;1.10;99.00;;;;;;5024099;28;20135;-82
2021/01/18 02:57:43;;;;;;;42.03;6.70;;;1.00;99.00;;;;;;5026201;28;20050;-83
2021/01/18 03:00:15;;;;;;;42.38;6.72;;;1.10;99.10;;;;;;5036768;28;20041;-82
2021/01/18 03:03:00;;;;;;;37.90;5.85;;;1.10;99.10;;;;;;5051402;28;20043;-82
2021/01/18 03:05:38;;;;;;;38.47;6.85;;;1.10;99.10;;;;;;5042149;28;20468;-82
2021/01/18 03:08:27;;;;;;;40.58;6.68;;;1.10;99.10;;;;;;5028291;28;20045;-82
2021/01/18 03:11:07;;;;;;;33.78;6.88;;;1.10;99.10;;;;;;5018933;28;20064;-82
2021/01/18 03:13:42;;;;;;;35.35;7.35;;;1.10;99.10;;;;;;5029037;28;20043;-83
2021/01/18 03:16:27;;;;;;;37.08;6.75;;;1.10;99.10;;;;;;5037584;28;20045;-83
2021/01/18 03:18:56;;;;;;;37.15;6.38;;;1.10;99.10;;;;;;5048405;28;20072;-82
2021/01/18 03:21:22;;;;;;;35.20;6.78;;;1.00;99.10;;;;;;5024007;28;20029;-82
2021/01/18 03:23:48;;;;;;;39.13;6.70;;;1.00;99.10;;;;;;5027535;28;20053;-82
2021/01/18 03:26:14;;;;;;;44.33;7.78;;;1.00;99.10;;;;;;5017378;28;20049;-83
2021/01/18 03:28:40;;;;;;;46.38;7.22;;;1.10;99.10;;;;;;5041187;28;20042;-82
2021/01/18 03:31:06;;;;;;;40.40;7.38;;;1.00;99.20;;;;;;5021900;28;20069;-82
2021/01/18 03:33:31;;;;;;;35.55;6.05;;;1.10;99.30;;;;;;5046966;28;21112;-82
2021/01/18 03:35:57;;;;;;;36.10;7.03;;;1.00;99.20;;;;;;5026774;28;20065;-82
2021/01/18 03:38:24;;;;;;;43.38;7.72;;;1.10;99.20;;;;;;5040871;28;20061;-82
2021/01/18 03:40:51;;;;;;;48.30;7.75;;;1.00;99.20;;;;;;5048949;28;20041;-82
2021/01/18 03:43:20;;;;;;;36.47;6.63;;;1.00;99.20;;;;;;5028581;28;20049;-82
2021/01/18 03:45:46;;;;;;;30.10;6.10;;;1.00;99.10;;;;;;5024945;28;20116;-82
2021/01/18 03:48:13;;;;;;;41.63;7.90;;;1.00;99.10;;;;;;5042316;28;20141;-82
2021/01/18 03:50:40;;;;;;;34.70;6.45;;;1.00;99.10;;;;;;5047673;28;20053;-82
2021/01/18 03:53:07;;;;;;;42.47;7.45;;;0.90;99.10;;;;;;5023160;28;20087;-82
2021/01/18 03:55:33;;;;;;;32.83;7.68;;;0.90;99.10;;;;;;5044507;28;20083;-83
2021/01/18 03:57:59;;;;;;;30.23;6.70;;;0.90;99.10;;;;;;5019741;28;20202;-82
2021/01/18 04:00:30;;;;;;;42.40;8.20;;;0.90;99.10;;;;;;5033789;28;20134;-82
2021/01/18 04:02:57;;;;;;;31.80;8.13;;;1.00;99.30;;;;;;5038134;28;20044;-82
2021/01/18 04:05:24;;;;;;;45.30;8.77;;;1.10;99.60;;;;;;5040870;28;20111;-83
2021/01/18 04:07:52;;;;;;;52.85;8.57;;;1.10;99.60;;;;;;5026863;28;20045;-82
2021/01/18 04:10:20;;;;;;;52.78;9.45;;;1.20;99.50;;;;;;5058547;28;20051;-82
2021/01/18 04:12:48;;;;;;;35.90;8.45;;;1.10;99.40;;;;;;5045793;28;20441;-82
2021/01/18 04:15:16;;;;;;;42.15;10.40;;;1.10;99.40;;;;;;5061441;28;20045;-82
2021/01/18 04:17:42;;;;;;;43.50;9.55;;;1.10;99.50;;;;;;5063218;28;20105;-83
2021/01/18 04:20:12;;;;;;;45.15;9.85;;;1.10;99.50;;;;;;5028520;28;20049;-82
2021/01/18 04:22:50;;;;;;;45.90;10.40;;;1.20;99.50;;;;;;5029783;28;20359;-83
2021/01/18 04:25:18;;;;;;;42.53;10.18;;;1.20;99.50;;;;;;5027548;28;20068;-82
2021/01/18 04:28:04;;;;;;;45.03;11.25;;;1.20;99.50;;;;;;5044885;28;20738;-83
2021/01/18 04:30:36;;;;;;;47.80;11.98;;;1.10;99.40;;;;;;5044730;28;20610;-82
2021/01/18 04:33:08;;;;;;;50.03;13.25;;;1.10;99.40;;;;;;5045168;28;20033;-82
2021/01/18 04:35:39;;;;;;;56.53;12.48;;;1.10;99.40;;;;;;5056796;28;20053;-82
2021/01/18 04:38:05;;;;;;;44.25;14.00;;;1.10;99.40;;;;;;5061035;28;20089;-82
2021/01/18 04:40:32;;;;;;;45.67;14.27;;;1.10;99.50;;;;;;5026016;28;20038;-82
2021/01/18 04:42:58;;;;;;;50.63;13.55;;;1.10;99.50;;;;;;5027025;28;20524;-82
2021/01/18 04:45:26;;;;;;;54.00;14.25;;;1.10;99.50;;;;;;5040743;28;20045;-82
2021/01/18 04:47:54;;;;;;;58.03;14.63;;;1.10;99.50;;;;;;5046026;28;23538;-82
2021/01/18 04:50:23;;;;;;;54.42;14.65;;;1.10;99.40;;;;;;5054409;28;20107;-83
2021/01/18 04:52:52;;;;;;;57.10;17.30;;;1.10;99.70;;;;;;5048612;28;20032;-82
2021/01/18 04:55:46;;;;;;;54.40;17.10;;;1.10;99.40;;;;;;5020647;28;20516;-82
2021/01/18 04:58:19;;;;;;;63.78;15.85;;;1.10;99.50;;;;;;5046383;28;20048;-82
2021/01/18 05:00:50;;;;;;;52.40;16.38;;;1.10;99.50;;;;;;5028728;28;20170;-83
2021/01/18 05:03:21;;;;;;;63.08;19.20;;;1.10;99.50;;;;;;5052857;28;20545;-82
2021/01/18 05:05:55;;;;;;;53.63;15.32;;;1.10;99.50;;;;;;5023730;28;20052;-82
2021/01/18 05:08:21;;;;;;;64.50;19.60;;;1.20;99.60;;;;;;5052644;28;20049;-82
2021/01/18 05:10:50;;;;;;;61.65;20.50;;;1.20;99.70;;;;;;5034122;28;20036;-82
2021/01/18 05:13:19;;;;;;;61.72;18.77;;;1.30;99.70;;;;;;5050649;28;20041;-82
2021/01/18 05:15:48;;;;;;;63.47;20.48;;;1.30;99.70;;;;;;5023997;28;20048;-82
2021/01/18 05:18:14;;;;;;;68.43;19.27;;;1.30;99.70;;;;;;5045312;28;20099;-82
2021/01/18 05:20:40;;;;;;;60.10;20.00;;;1.30;99.70;;;;;;5043138;28;20041;-82
2021/01/18 05:23:08;;;;;;;55.33;18.33;;;1.40;99.80;;;;;;5061750;28;20049;-82
2021/01/18 05:25:35;;;;;;;56.08;19.42;;;1.40;99.90;;;;;;5029116;28;20033;-82
2021/01/18 05:28:08;;;;;;;67.15;20.30;;;1.40;99.70;;;;;;5027916;28;20072;-82
2021/01/18 05:30:36;;;;;;;66.32;20.20;;;1.40;99.70;;;;;;5045039;28;20063;-82
2021/01/18 05:33:13;;;;;;;60.70;21.25;;;1.40;99.70;;;;;;5029900;28;20040;-82
2021/01/18 05:35:47;;;;;;;59.80;20.33;;;1.40;99.80;;;;;;5050687;28;20461;-82
2021/01/18 05:38:14;;;;;;;60.67;20.80;;;1.50;99.80;;;;;;5045609;28;20051;-82
2021/01/18 05:40:43;;;;;;;59.83;20.95;;;1.50;99.80;;;;;;5050498;28;20649;-83
2021/01/18 05:43:10;;;;;;;56.45;18.88;;;1.60;99.80;;;;;;5041156;28;20063;-82
2021/01/18 05:45:37;;;;;;;59.25;19.75;;;1.60;99.80;;;;;;5060325;28;20053;-82
2021/01/18 05:48:05;;;;;;;60.40;19.17;;;1.60;99.90;;;;;;5042719;28;20041;-82
2021/01/18 05:50:32;;;;;;;60.90;19.90;;;1.60;99.90;;;;;;5044696;28;20186;-82
2021/01/18 05:52:59;;;;;;;64.95;19.55;;;1.70;99.90;;;;;;5039074;28;20366;-82
2021/01/18 05:55:27;;;;;;;63.28;17.85;;;1.70;99.90;;;;;;5022656;28;20054;-82
2021/01/18 05:58:00;;;;;;;51.22;17.85;;;1.70;99.90;;;;;;5045316;28;20048;-82
2021/01/18 06:00:27;;;;;;;75.43;19.48;;;1.70;99.90;;;;;;5027837;28;20068;-81
2021/01/18 06:02:53;;;;;;;62.25;19.67;;;1.70;99.90;;;;;;5042994;28;20075;-82
2021/01/18 06:05:33;;;;;;;58.10;20.48;;;1.70;99.90;;;;;;5057998;28;20558;-82
2021/01/18 06:08:13;;;;;;;63.58;18.92;;;1.70;99.90;;;;;;5027841;28;20045;-82
2021/01/18 06:10:39;;;;;;;61.63;19.00;;;1.70;99.90;;;;;;5048077;28;20406;-82
2021/01/18 06:13:33;;;;;;;61.17;18.98;;;1.70;99.90;;;;;;5042649;28;20060;-82
2021/01/18 06:16:02;;;;;;;65.63;18.90;;;1.70;99.90;;;;;;5031034;28;20123;-82
2021/01/18 06:18:33;;;;;;;59.55;19.63;;;1.80;99.90;;;;;;5040580;28;20045;-82
2021/01/18 06:21:00;;;;;;;48.03;17.80;;;1.80;99.90;;;;;;5060581;28;20080;-83
2021/01/18 06:23:27;;;;;;;60.95;20.77;;;1.80;99.90;;;;;;5040960;28;20052;-83
2021/01/18 06:25:55;;;;;;;64.70;20.30;;;1.80;99.90;;;;;;5065245;28;20068;-82
2021/01/18 06:28:34;;;;;;;59.25;20.70;;;1.80;99.90;;;;;;5044133;28;20045;-82
2021/01/18 06:31:07;;;;;;;59.53;20.63;;;1.80;99.90;;;;;;5049610;28;20492;-84
2021/01/18 06:33:47;;;;;;;68.43;20.63;;;1.90;99.90;;;;;;5042658;28;20146;-82
2021/01/18 06:36:25;;;;;;;68.72;22.40;;;1.90;99.90;;;;;;5047623;28;20106;-82
2021/01/18 06:39:00;;;;;;;76.45;22.27;;;2.00;99.90;;;;;;5034830;28;20077;-82
2021/01/18 06:41:27;;;;;;;75.65;21.73;;;2.00;99.90;;;;;;5047210;28;20065;-82
2021/01/18 06:43:53;;;;;;;65.30;22.38;;;2.10;99.90;;;;;;5042552;28;20041;-82
2021/01/18 06:46:36;;;;;;;69.55;21.20;;;2.20;99.90;;;;;;5045795;28;20111;-82
2021/01/18 06:49:06;;;;;;;62.63;21.50;;;2.20;99.90;;;;;;5026242;28;20052;-82
2021/01/18 06:51:32;;;;;;;63.92;22.02;;;2.30;99.90;;;;;;5050507;28;20527;-81
2021/01/18 06:53:59;;;;;;;67.25;22.73;;;2.30;99.90;;;;;;5025761;28;20499;-82
2021/01/18 06:56:40;;;;;;;69.43;22.58;;;2.40;99.90;;;;;;5023870;28;20065;-82
2021/01/18 06:59:45;;;;;;;71.60;22.42;;;2.40;99.90;;;;;;5033246;28;20295;-82
2021/01/18 07:02:15;;;;;;;70.03;22.40;;;2.50;99.90;;;;;;5024687;28;20045;-81
2021/01/18 07:04:46;;;;;;;71.22;24.70;;;2.50;99.90;;;;;;5030410;28;20063;-82
2021/01/18 07:07:23;;;;;;;57.65;22.52;;;2.50;99.90;;;;;;5048425;28;20874;-81
2021/01/18 07:10:09;;;;;;;85.97;23.60;;;2.50;99.90;;;;;;5035872;28;20660;-82
2021/01/18 07:12:35;;;;;;;80.68;24.63;;;2.60;99.90;;;;;;5041829;28;20037;-81
2021/01/18 07:15:09;;;;;;;77.55;26.00;;;2.60;99.90;;;;;;5060826;28;20116;-80
2021/01/18 07:17:47;;;;;;;;;;;2.70;99.90;;;;;;5049688;28;20045;-80
2021/01/18 07:20:22;;;;;;;92.65;27.20;;;2.60;99.90;;;;;;5047456;28;19921;-81
2021/01/18 07:23:07;;;;;;;71.25;24.75;;;2.70;99.90;;;;;;5033805;28;20033;-81
2021/01/18 07:25:36;;;;;;;82.00;25.83;;;2.70;99.90;;;;;;5040267;28;20059;-82
2021/01/18 07:28:03;;;;;;;84.47;27.00;;;2.70;99.90;;;;;;5032902;28;20132;-81
2021/01/18 07:30:33;;;;;;;79.78;27.77;;;2.80;99.90;;;;;;5040646;28;20630;-83
2021/01/18 07:33:13;;;;;;;67.47;25.88;;;2.70;99.90;;;;;;5050370;28;20116;-83
2021/01/18 07:35:40;;;;;;;71.35;26.42;;;2.70;99.90;;;;;;5024587;28;20053;-84
2021/01/18 07:38:13;;;;;;;78.30;27.33;;;2.70;99.90;;;;;;5051451;28;20362;-83
2021/01/18 07:40:39;;;;;;;79.57;28.35;;;2.80;99.90;;;;;;5025525;28;20041;-82
2021/01/18 07:43:06;;;;;;;71.32;27.42;;;2.70;99.90;;;;;;5036350;28;20121;-83
2021/01/18 07:45:32;;;;;;;73.25;28.35;;;2.80;99.90;;;;;;5031571;28;20453;-82
2021/01/18 07:47:57;;;;;;;67.75;25.67;;;2.80;99.90;;;;;;5047084;28;20045;-83
2021/01/18 07:50:30;;;;;;;69.90;25.20;;;2.80;99.90;;;;;;5042903;28;20059;-82
2021/01/18 07:53:00;;;;;;;73.95;27.35;;;2.80;99.90;;;;;;5041420;28;20053;-82
2021/01/18 07:55:26;;;;;;;74.85;27.85;;;2.80;99.90;;;;;;5041566;28;20457;-82
2021/01/18 07:57:52;;;;;;;87.00;29.10;;;2.80;99.90;;;;;;5041617;28;20045;-81
2021/01/18 08:00:18;;;;;;;79.93;28.88;;;2.70;99.90;;;;;;5030681;28;20646;-84
2021/01/18 08:02:50;;;;;;;82.93;29.08;;;2.70;99.90;;;;;;5048887;28;20473;-82
2021/01/18 08:05:42;;;;;;;74.25;28.05;;;2.80;99.90;;;;;;5044931;28;20125;-84
2021/01/18 08:08:09;;;;;;;81.80;28.55;;;2.80;99.90;;;;;;5022031;28;20041;-83
2021/01/18 08:10:55;;;;;;;97.88;29.40;;;2.80;99.90;;;;;;5050751;28;20546;-81
2021/01/18 08:13:28;;;;;;;84.30;29.75;;;2.80;99.90;;;;;;5043609;28;20072;-84
2021/01/18 08:16:39;;;;;;;91.53;29.88;;;2.80;99.90;;;;;;5034888;28;20053;-85
2021/01/18 08:19:23;;;;;;;78.13;28.65;;;2.90;99.90;;;;;;4990144;28;20144;-83
2021/01/18 08:21:57;;;;;;;76.10;28.80;;;2.90;99.90;;;;;;5003868;28;20070;-85
2021/01/18 08:24:23;;;;;;;92.60;30.67;;;2.90;99.90;;;;;;4987337;28;20136;-85
2021/01/18 08:27:05;;;;;;;71.40;30.05;;;2.90;99.90;;;;;;4995214;28;20066;-83
2021/01/18 08:29:43;;;;;;;80.10;31.08;;;2.90;99.90;;;;;;4978467;28;20046;-86
2021/01/18 08:32:24;;;;;;;88.03;32.17;;;3.00;99.90;;;;;;4977533;28;20522;-83
2021/01/18 08:34:54;;;;;;;89.25;33.33;;;3.00;99.90;;;;;;4990276;28;20080;-83
2021/01/18 08:37:20;;;;;;;83.82;33.13;;;3.00;99.90;;;;;;5011490;28;20054;-86
2021/01/18 08:40:00;;;;;;;71.32;31.10;;;3.10;99.90;;;;;;4991606;28;20045;-85
2021/01/18 08:42:30;;;;;;;78.07;31.05;;;3.10;99.90;;;;;;5014614;28;20450;-83
2021/01/18 08:45:19;;;;;;;89.47;32.28;;;3.20;99.90;;;;;;5003165;28;20144;-83
2021/01/18 08:47:53;;;;;;;77.43;30.73;;;3.20;99.90;;;;;;4986295;28;20046;-83
2021/01/18 08:50:25;;;;;;;79.40;28.42;;;3.20;99.90;;;;;;4985869;28;20103;-82
2021/01/18 08:52:53;;;;;;;75.32;30.42;;;3.20;99.90;;;;;;4992582;28;20065;-82
2021/01/18 08:55:28;;;;;;;72.45;28.95;;;3.30;99.90;;;;;;5036225;28;20048;-83
2021/01/18 08:58:06;;;;;;;74.18;29.65;;;3.30;99.90;;;;;;5042026;28;20427;-83
2021/01/18 09:00:56;;;;;;;77.45;29.60;;;3.30;99.90;;;;;;5034323;28;20095;-84
2021/01/18 09:03:22;;;;;;;76.22;29.52;;;3.40;99.90;;;;;;5044744;28;20041;-82
2021/01/18 09:05:52;;;;;;;82.10;30.92;;;3.40;99.90;;;;;;5042042;28;20036;-84
2021/01/18 09:08:20;;;;;;;69.63;28.85;;;3.40;99.90;;;;;;5034450;28;20412;-85
2021/01/18 09:10:58;;;;;;;75.38;28.67;;;3.50;99.90;;;;;;5009217;28;20045;-82
2021/01/18 09:13:29;;;;;;;74.57;28.05;;;3.50;99.90;;;;;;5040579;28;20516;-83
2021/01/18 09:15:57;;;;;;;77.70;28.83;;;3.50;99.90;;;;;;5038404;28;20437;-82
2021/01/18 09:18:25;;;;;;;68.53;27.15;;;3.60;99.90;;;;;;5030395;28;20053;-85
2021/01/18 09:20:54;;;;;;;68.80;27.77;;;3.60;99.90;;;;;;5004241;28;20065;-84
2021/01/18 09:23:20;;;;;;;75.88;29.27;;;3.70;99.90;;;;;;5028147;28;20046;-84
2021/01/18 09:25:47;;;;;;;64.90;27.10;;;3.70;99.90;;;;;;5021626;28;20075;-84
2021/01/18 09:28:17;;;;;;;68.63;26.38;;;3.80;99.90;;;;;;5048855;28;20103;-83
2021/01/18 09:30:44;;;;;;;73.70;27.58;;;3.80;99.90;;;;;;5023689;28;20060;-83
2021/01/18 09:33:11;;;;;;;81.55;29.88;;;4.00;99.90;;;;;;5036739;28;20510;-84
2021/01/18 09:35:39;;;;;;;53.05;24.05;;;3.90;99.90;;;;;;5040652;28;20040;-84
2021/01/18 09:38:06;;;;;;;78.78;28.13;;;4.00;99.90;;;;;;5046522;28;20033;-83
2021/01/18 09:40:34;;;;;;;65.35;25.33;;;4.10;99.90;;;;;;5023618;28;20061;-83
2021/01/18 09:43:00;;;;;;;67.40;27.48;;;4.10;99.90;;;;;;5038548;28;20057;-82
2021/01/18 09:45:26;;;;;;;63.78;26.25;;;4.20;99.90;;;;;;5051802;28;20083;-83
2021/01/18 09:47:54;;;;;;;51.22;22.00;;;4.20;99.90;;;;;;5039114;28;20395;-84
2021/01/18 09:50:22;;;;;;;69.38;27.48;;;4.20;99.90;;;;;;5037630;28;20053;-85
2021/01/18 09:52:51;;;;;;;75.78;29.75;;;4.20;99.90;;;;;;5026271;28;20060;-87
2021/01/18 09:55:18;;;;;;;72.93;27.13;;;4.20;99.90;;;;;;5034487;28;20033;-86
2021/01/18 09:57:48;;;;;;;58.80;25.83;;;4.30;99.90;;;;;;5062092;28;20118;-85
2021/01/18 10:00:15;;;;;;;59.38;26.25;;;4.30;99.90;;;;;;5031234;28;20436;-84
2021/01/18 10:02:43;;;;;;;62.85;25.95;;;4.40;99.90;;;;;;5025726;28;20043;-85
2021/01/18 10:05:21;;;;;;;63.25;23.77;;;4.40;99.90;;;;;;5049569;28;20036;-83
2021/01/18 10:07:52;;;;;;;67.35;23.88;;;4.40;99.90;;;;;;5039768;28;20516;-87
2021/01/18 10:10:19;;;;;;;64.00;22.33;;;4.30;99.90;;;;;;5028702;28;20500;-87
2021/01/18 10:12:54;;;;;;;58.13;24.48;;;4.40;99.90;;;;;;5020032;28;20053;-87
2021/01/18 10:15:25;;;;;;;68.53;24.23;;;4.50;99.90;;;;;;5017959;28;20485;-86
2021/01/18 10:17:52;;;;;;;47.67;20.10;;;4.50;99.90;;;;;;5021979;28;20485;-86
2021/01/18 10:20:25;;;;;;;51.65;20.75;;;4.50;99.90;;;;;;5022869;28;20049;-87
2021/01/18 10:22:52;;;;;;;54.78;22.42;;;4.60;99.90;;;;;;5032284;28;20076;-85
2021/01/18 10:25:18;;;;;;;44.17;21.38;;;4.60;99.90;;;;;;5057120;28;20045;-86
2021/01/18 10:27:53;;;;;;;53.13;20.05;;;4.60;99.90;;;;;;5041852;28;20057;-85
2021/01/18 10:30:39;;;;;;;50.30;19.30;;;4.70;99.90;;;;;;5037117;28;20446;-85
2021/01/18 10:33:18;;;;;;;47.88;19.05;;;4.70;99.90;;;;;;5032343;28;20033;-86
2021/01/18 10:35:45;;;;;;;38.50;15.63;;;4.70;99.90;;;;;;5051558;28;20073;-85
2021/01/18 10:38:25;;;;;;;52.42;20.55;;;4.80;99.90;;;;;;5016327;28;20060;-85
2021/01/18 10:41:00;;;;;;;50.08;19.17;;;4.70;99.90;;;;;;5040121;28;20087;-86
2021/01/18 10:43:27;;;;;;;47.22;17.75;;;4.80;99.90;;;;;;5047363;28;20425;-86
2021/01/18 10:45:53;;;;;;;39.97;16.65;;;4.80;99.90;;;;;;5021479;28;20046;-85
2021/01/18 10:48:26;;;;;;;45.58;16.70;;;4.80;99.90;;;;;;5005471;28;20042;-86
2021/01/18 10:51:03;;;;;;;47.60;18.17;;;4.90;99.90;;;;;;5023938;28;20068;-85
2021/01/18 10:53:32;;;;;;;46.38;16.75;;;4.90;99.90;;;;;;5017491;28;20065;-84
2021/01/18 10:56:17;;;;;;;37.90;14.50;;;4.90;99.80;;;;;;5026552;28;20046;-82
2021/01/18 10:58:43;;;;;;;33.33;12.63;;;4.90;99.80;;;;;;5018917;28;20107;-84
2021/01/18 11:01:11;;;;;;;46.78;15.90;;;4.90;99.80;;;;;;4998792;28;20072;-85
2021/01/18 11:03:46;;;;;;;43.95;14.80;;;4.90;99.90;;;;;;5028372;28;20053;-85
2021/01/18 11:06:17;;;;;;;40.58;13.05;;;5.00;99.90;;;;;;5002734;28;20492;-84
2021/01/18 11:08:43;;;;;;;35.33;13.13;;;5.00;99.90;;;;;;5010448;28;20053;-85
2021/01/18 11:11:27;;;;;;;39.58;14.98;;;5.00;99.80;;;;;;4999516;28;20069;-84
2021/01/18 11:14:01;;;;;;;43.33;14.50;;;5.00;99.90;;;;;;5012925;28;20184;-85
2021/01/18 11:16:27;;;;;;;29.23;11.68;;;5.10;99.80;;;;;;5002917;28;20058;-86
2021/01/18 11:19:02;;;;;;;40.33;14.18;;;5.00;99.60;;;;;;5058884;28;20069;-86
2021/01/18 11:21:28;;;;;;;32.13;13.38;;;5.10;99.60;;;;;;5021228;28;20080;-85
2021/01/18 11:23:57;;;;;;;42.08;16.90;;;5.10;99.70;;;;;;5038536;28;20554;-83
2021/01/18 11:26:24;;;;;;;42.55;15.95;;;5.10;99.70;;;;;;5026134;28;20061;-84
2021/01/18 11:28:50;;;;;;;29.83;12.98;;;5.10;99.40;;;;;;5027100;28;20109;-80
2021/01/18 11:31:16;;;;;;;37.25;15.25;;;5.10;99.70;;;;;;5025843;28;20087;-83
2021/01/18 11:33:44;;;;;;;32.88;12.07;;;5.10;99.40;;;;;;5022962;28;20065;-83
2021/01/18 11:36:11;;;;;;;43.50;15.30;;;5.10;99.30;;;;;;5022783;28;20049;-82
2021/01/18 11:38:38;;;;;;;46.78;16.10;;;5.10;99.40;;;;;;5052199;28;20060;-84
2021/01/18 11:41:03;;;;;;;39.00;12.93;;;5.10;99.50;;;;;;5023327;28;20057;-84
2021/01/18 11:43:33;;;;;;;33.70;13.18;;;5.10;99.40;;;;;;5027360;28;20068;-85
2021/01/18 11:46:02;;;;;;;34.88;12.88;;;5.20;99.50;;;;;;5044857;28;20052;-84
2021/01/18 11:48:37;;;;;;;35.55;14.02;;;5.20;99.30;;;;;;5045128;28;20044;-83
2021/01/18 11:51:03;;;;;;;34.88;10.85;;;5.20;99.40;;;;;;5052535;28;20477;-82
2021/01/18 11:53:28;;;;;;;29.90;11.80;;;5.20;99.40;;;;;;5041587;28;20044;-82
2021/01/18 11:55:54;;;;;;;29.67;11.80;;;5.20;99.20;;;;;;5050608;28;20052;-82
2021/01/18 11:58:20;;;;;;;35.15;13.07;;;5.20;99.30;;;;;;5045263;28;20041;-82
2021/01/18 12:00:46;;;;;;;29.95;11.50;;;5.20;99.10;;;;;;5039629;28;20131;-81
2021/01/18 12:03:11;;;;;;;30.85;10.75;;;5.20;99.10;;;;;;5049869;28;20049;-82
2021/01/18 12:05:37;;;;;;;32.60;12.23;;;5.20;99.10;;;;;;5041419;28;20120;-83
2021/01/18 12:08:03;;;;;;;31.88;11.85;;;5.20;99.10;;;;;;5037616;28;20107;-82
2021/01/18 12:10:30;;;;;;;32.70;12.63;;;5.20;99.10;;;;;;5038219;28;20494;-81
2021/01/18 12:12:57;;;;;;;40.55;12.43;;;5.20;99.10;;;;;;5022001;28;20055;-82
2021/01/18 12:15:22;;;;;;;31.17;11.15;;;5.20;99.10;;;;;;5050777;28;20412;-83
2021/01/18 12:17:48;;;;;;;33.33;12.23;;;5.20;99.10;;;;;;5029402;28;20167;-83
2021/01/18 12:20:17;;;;;;;37.05;12.30;;;5.20;99.10;;;;;;5027050;28;20058;-84
2021/01/18 12:22:44;;;;;;;32.78;12.70;;;5.30;99.00;;;;;;5055492;28;20041;-83
2021/01/18 12:25:11;;;;;;;30.27;11.93;;;5.30;99.10;;;;;;5043901;28;20147;-80
2021/01/18 12:27:37;;;;;;;36.65;12.32;;;5.30;99.00;;;;;;5026992;28;20040;-82
2021/01/18 12:30:04;;;;;;;34.13;11.35;;;5.30;99.10;;;;;;5029618;28;20053;-81
2021/01/18 12:32:30;;;;;;;31.92;11.40;;;5.40;99.00;;;;;;5040482;28;20037;-82
2021/01/18 12:34:56;;;;;;;25.08;10.68;;;5.40;99.00;;;;;;5046643;28;20041;-83
2021/01/18 12:37:22;;;;;;;37.25;12.35;;;5.50;98.90;;;;;;5030213;28;20057;-83
2021/01/18 12:39:47;;;;;;;27.15;9.90;;;5.50;99.00;;;;;;5036203;28;20053;-82
2021/01/18 12:42:13;;;;;;;31.35;11.35;;;5.50;98.80;;;;;;5026468;28;20056;-82
2021/01/18 12:44:39;;;;;;;24.42;11.40;;;5.50;98.70;;;;;;5021014;28;20194;-83
2021/01/18 12:47:06;;;;;;;26.88;10.80;;;5.60;98.60;;;;;;5040392;28;20123;-83
2021/01/18 12:49:32;;;;;;;29.70;11.00;;;5.60;98.60;;;;;;5040266;28;20045;-83
2021/01/18 12:51:59;;;;;;;30.15;9.88;;;5.60;98.50;;;;;;5047766;28;20033;-83
2021/01/18 12:54:24;;;;;;;28.58;10.35;;;5.70;98.40;;;;;;5033875;28;20442;-83
2021/01/18 12:56:54;;;;;;;30.63;10.48;;;5.80;98.40;;;;;;5033053;28;20105;-83